sensor_id;sensor_type;location;lat;lon;timestamp;temperature;humidity
50570;DHT22;36525;49.398;7.614;2023-05-29T00:01:07;14.50;99.90
50570;DHT22;36525;49.398;7.614;2023-05-29T00:03:35;14.50;99.90
50570;DHT22;36525;49.398;7.614;2023-05-29T00:06:03;14.40;99.90
50570;DHT22;36525;49.398;7.614;2023-05-29T00:08:30;14.40;99.90
50570;DHT22;36525;49.398;7.614;2023-05-29T00:10:58;14.30;99.90
50570;DHT22;36525;49.398;7.614;2023-05-29T00:13:25;14.20;99.90
50570;DHT22;36525;49.398;7.614;2023-05-29T00:15:52;14.20;99.90
50570;DHT22;36525;49.398;7.614;2023-05-29T00:18:20;14.10;99.90
50570;DHT22;36525;49.398;7.614;2023-05-29T00:20:47;14.20;99.90
50570;DHT22;36525;49.398;7.614;2023-05-29T00:23:21;14.10;99.90
50570;DHT22;36525;49.398;7.614;2023-05-29T00:25:48;14.10;99.90
50570;DHT22;36525;49.398;7.614;2023-05-29T00:28:16;14.00;99.90
50570;DHT22;36525;49.398;7.614;2023-05-29T00:30:43;14.00;99.90
50570;DHT22;36525;49.398;7.614;2023-05-29T00:33:10;13.90;99.90
50570;DHT22;36525;49.398;7.614;2023-05-29T00:35:37;13.90;99.90
50570;DHT22;36525;49.398;7.614;2023-05-29T00:38:05;13.90;99.90
50570;DHT22;36525;49.398;7.614;2023-05-29T00:40:32;13.80;99.90
50570;DHT22;36525;49.398;7.614;2023-05-29T00:42:59;13.80;99.90
50570;DHT22;36525;49.398;7.614;2023-05-29T00:45:26;13.70;99.90
50570;DHT22;36525;49.398;7.614;2023-05-29T00:47:54;13.60;99.90
50570;DHT22;36525;49.398;7.614;2023-05-29T00:50:21;13.50;99.90
50570;DHT22;36525;49.398;7.614;2023-05-29T00:52:50;13.50;99.90
50570;DHT22;36525;49.398;7.614;2023-05-29T00:55:17;13.50;99.90
50570;DHT22;36525;49.398;7.614;2023-05-29T00:57:45;13.50;99.90
50570;DHT22;36525;49.398;7.614;2023-05-29T01:00:13;13.40;99.90
50570;DHT22;36525;49.398;7.614;2023-05-29T01:02:43;13.30;99.90
50570;DHT22;36525;49.398;7.614;2023-05-29T01:05:12;13.20;99.90
50570;DHT22;36525;49.398;7.614;2023-05-29T01:07:41;13.10;99.90
50570;DHT22;36525;49.398;7.614;2023-05-29T01:10:09;13.10;99.90
50570;DHT22;36525;49.398;7.614;2023-05-29T01:12:47;13.10;99.90
50570;DHT22;36525;49.398;7.614;2023-05-29T01:21:20;13.00;99.90
50570;DHT22;36525;49.398;7.614;2023-05-29T01:24:02;13.00;99.90
50570;DHT22;36525;49.398;7.614;2023-05-29T01:26:51;13.00;99.90
50570;DHT22;36525;49.398;7.614;2023-05-29T01:29:29;13.00;99.90
50570;DHT22;36525;49.398;7.614;2023-05-29T01:31:59;12.90;99.90
50570;DHT22;36525;49.398;7.614;2023-05-29T01:34:29;12.90;99.90
50570;DHT22;36525;49.398;7.614;2023-05-29T01:36:56;12.90;99.90
50570;DHT22;36525;49.398;7.614;2023-05-29T01:39:24;12.80;99.90
50570;DHT22;36525;49.398;7.614;2023-05-29T01:41:52;12.80;99.90
50570;DHT22;36525;49.398;7.614;2023-05-29T01:44:21;12.70;99.90
50570;DHT22;36525;49.398;7.614;2023-05-29T01:46:48;12.70;99.90
50570;DHT22;36525;49.398;7.614;2023-05-29T01:49:16;12.60;99.90
50570;DHT22;36525;49.398;7.614;2023-05-29T01:51:45;12.50;99.90
50570;DHT22;36525;49.398;7.614;2023-05-29T01:54:12;12.50;99.90
50570;DHT22;36525;49.398;7.614;2023-05-29T01:56:40;12.50;99.90
50570;DHT22;36525;49.398;7.614;2023-05-29T01:59:08;12.50;99.90
50570;DHT22;36525;49.398;7.614;2023-05-29T02:01:39;12.50;99.90
50570;DHT22;36525;49.398;7.614;2023-05-29T02:04:07;12.40;99.90
50570;DHT22;36525;49.398;7.614;2023-05-29T02:06:34;12.30;99.90
50570;DHT22;36525;49.398;7.614;2023-05-29T02:09:02;12.30;99.90
50570;DHT22;36525;49.398;7.614;2023-05-29T02:11:30;12.30;99.90
50570;DHT22;36525;49.398;7.614;2023-05-29T02:13:57;12.40;99.90
50570;DHT22;36525;49.398;7.614;2023-05-29T02:16:24;12.30;99.90
50570;DHT22;36525;49.398;7.614;2023-05-29T02:18:54;12.20;99.90
50570;DHT22;36525;49.398;7.614;2023-05-29T02:21:21;12.10;99.90
50570;DHT22;36525;49.398;7.614;2023-05-29T02:23:49;12.10;99.90
50570;DHT22;36525;49.398;7.614;2023-05-29T02:26:16;12.00;99.90
50570;DHT22;36525;49.398;7.614;2023-05-29T02:28:47;12.00;99.90
50570;DHT22;36525;49.398;7.614;2023-05-29T02:31:14;12.00;99.90
50570;DHT22;36525;49.398;7.614;2023-05-29T02:33:42;12.00;99.90
50570;DHT22;36525;49.398;7.614;2023-05-29T02:36:09;12.00;99.90
50570;DHT22;36525;49.398;7.614;2023-05-29T02:38:38;11.90;99.90
50570;DHT22;36525;49.398;7.614;2023-05-29T02:41:05;11.90;99.90
50570;DHT22;36525;49.398;7.614;2023-05-29T02:43:33;11.90;99.90
50570;DHT22;36525;49.398;7.614;2023-05-29T02:46:00;11.80;99.90
50570;DHT22;36525;49.398;7.614;2023-05-29T02:48:28;11.70;99.90
50570;DHT22;36525;49.398;7.614;2023-05-29T02:50:55;11.70;99.90
50570;DHT22;36525;49.398;7.614;2023-05-29T02:53:23;11.70;99.90
50570;DHT22;36525;49.398;7.614;2023-05-29T02:55:50;11.60;99.90
50570;DHT22;36525;49.398;7.614;2023-05-29T02:58:20;11.50;99.90
50570;DHT22;36525;49.398;7.614;2023-05-29T03:00:47;11.60;99.90
50570;DHT22;36525;49.398;7.614;2023-05-29T03:03:15;11.60;99.90
50570;DHT22;36525;49.398;7.614;2023-05-29T03:05:42;11.60;99.90
50570;DHT22;36525;49.398;7.614;2023-05-29T03:08:09;11.60;99.90
50570;DHT22;36525;49.398;7.614;2023-05-29T03:10:37;11.50;99.90
50570;DHT22;36525;49.398;7.614;2023-05-29T03:13:03;11.40;99.90
50570;DHT22;36525;49.398;7.614;2023-05-29T03:15:31;11.40;99.90
50570;DHT22;36525;49.398;7.614;2023-05-29T03:17:59;11.40;99.90
50570;DHT22;36525;49.398;7.614;2023-05-29T03:20:28;11.40;99.90
50570;DHT22;36525;49.398;7.614;2023-05-29T03:22:55;11.40;99.90
50570;DHT22;36525;49.398;7.614;2023-05-29T03:25:23;11.40;99.90
50570;DHT22;36525;49.398;7.614;2023-05-29T03:27:50;11.40;99.90
50570;DHT22;36525;49.398;7.614;2023-05-29T03:30:17;11.40;99.90
50570;DHT22;36525;49.398;7.614;2023-05-29T03:32:46;11.30;99.90
50570;DHT22;36525;49.398;7.614;2023-05-29T03:35:13;11.30;99.90
50570;DHT22;36525;49.398;7.614;2023-05-29T03:37:40;11.30;99.90
50570;DHT22;36525;49.398;7.614;2023-05-29T03:40:08;11.30;99.90
50570;DHT22;36525;49.398;7.614;2023-05-29T03:42:35;11.20;99.90
50570;DHT22;36525;49.398;7.614;2023-05-29T03:45:03;11.20;99.90
50570;DHT22;36525;49.398;7.614;2023-05-29T03:47:30;11.20;99.90
50570;DHT22;36525;49.398;7.614;2023-05-29T03:49:57;11.20;99.90
50570;DHT22;36525;49.398;7.614;2023-05-29T03:52:24;11.20;99.90
50570;DHT22;36525;49.398;7.614;2023-05-29T03:54:54;11.20;99.90
50570;DHT22;36525;49.398;7.614;2023-05-29T03:57:22;11.10;99.90
50570;DHT22;36525;49.398;7.614;2023-05-29T03:59:48;11.10;99.90
50570;DHT22;36525;49.398;7.614;2023-05-29T04:02:16;11.10;99.90
50570;DHT22;36525;49.398;7.614;2023-05-29T04:04:45;11.10;99.90
50570;DHT22;36525;49.398;7.614;2023-05-29T04:07:13;11.20;99.90
50570;DHT22;36525;49.398;7.614;2023-05-29T04:09:40;11.30;99.90
50570;DHT22;36525;49.398;7.614;2023-05-29T04:12:08;11.20;99.90
50570;DHT22;36525;49.398;7.614;2023-05-29T04:14:36;11.20;99.90
50570;DHT22;36525;49.398;7.614;2023-05-29T04:17:03;11.20;99.90
50570;DHT22;36525;49.398;7.614;2023-05-29T04:19:30;11.20;99.90
50570;DHT22;36525;49.398;7.614;2023-05-29T04:21:57;11.20;99.90
50570;DHT22;36525;49.398;7.614;2023-05-29T04:24:24;11.40;99.90
50570;DHT22;36525;49.398;7.614;2023-05-29T04:26:52;11.50;99.90
50570;DHT22;36525;49.398;7.614;2023-05-29T04:29:19;11.60;99.90
50570;DHT22;36525;49.398;7.614;2023-05-29T04:31:46;11.60;99.90
50570;DHT22;36525;49.398;7.614;2023-05-29T04:34:18;11.60;99.90
50570;DHT22;36525;49.398;7.614;2023-05-29T04:36:47;11.70;99.90
50570;DHT22;36525;49.398;7.614;2023-05-29T04:39:14;11.70;99.90
50570;DHT22;36525;49.398;7.614;2023-05-29T04:41:42;11.80;99.90
50570;DHT22;36525;49.398;7.614;2023-05-29T04:44:09;11.90;99.90
50570;DHT22;36525;49.398;7.614;2023-05-29T04:46:38;12.00;99.90
50570;DHT22;36525;49.398;7.614;2023-05-29T04:49:05;12.00;99.90
50570;DHT22;36525;49.398;7.614;2023-05-29T04:51:33;12.10;99.90
50570;DHT22;36525;49.398;7.614;2023-05-29T04:54:00;12.20;99.90
50570;DHT22;36525;49.398;7.614;2023-05-29T04:56:28;12.30;99.90
50570;DHT22;36525;49.398;7.614;2023-05-29T04:58:55;12.40;99.90
50570;DHT22;36525;49.398;7.614;2023-05-29T05:01:22;12.60;99.90
50570;DHT22;36525;49.398;7.614;2023-05-29T05:03:50;12.80;99.90
50570;DHT22;36525;49.398;7.614;2023-05-29T05:06:22;13.00;99.90
50570;DHT22;36525;49.398;7.614;2023-05-29T05:08:49;13.20;99.90
50570;DHT22;36525;49.398;7.614;2023-05-29T05:11:18;13.40;99.90
50570;DHT22;36525;49.398;7.614;2023-05-29T05:13:45;13.50;99.90
50570;DHT22;36525;49.398;7.614;2023-05-29T05:16:12;13.60;99.90
50570;DHT22;36525;49.398;7.614;2023-05-29T05:18:40;13.80;99.90
50570;DHT22;36525;49.398;7.614;2023-05-29T05:21:07;13.90;99.90
50570;DHT22;36525;49.398;7.614;2023-05-29T05:23:34;14.00;99.90
50570;DHT22;36525;49.398;7.614;2023-05-29T05:26:21;14.20;99.90
50570;DHT22;36525;49.398;7.614;2023-05-29T05:28:49;14.20;99.90
50570;DHT22;36525;49.398;7.614;2023-05-29T05:31:15;14.40;99.90
50570;DHT22;36525;49.398;7.614;2023-05-29T05:33:43;14.60;99.90
50570;DHT22;36525;49.398;7.614;2023-05-29T05:36:10;14.70;99.90
50570;DHT22;36525;49.398;7.614;2023-05-29T05:38:38;14.80;99.90
50570;DHT22;36525;49.398;7.614;2023-05-29T05:41:05;14.90;99.90
50570;DHT22;36525;49.398;7.614;2023-05-29T05:43:33;14.90;99.90
50570;DHT22;36525;49.398;7.614;2023-05-29T05:46:00;15.10;99.90
50570;DHT22;36525;49.398;7.614;2023-05-29T05:48:27;15.20;99.90
50570;DHT22;36525;49.398;7.614;2023-05-29T05:50:54;15.30;99.90
50570;DHT22;36525;49.398;7.614;2023-05-29T05:53:22;15.30;99.90
50570;DHT22;36525;49.398;7.614;2023-05-29T05:55:49;15.30;99.90
50570;DHT22;36525;49.398;7.614;2023-05-29T05:58:16;15.50;99.90
50570;DHT22;36525;49.398;7.614;2023-05-29T06:00:44;15.60;99.90
50570;DHT22;36525;49.398;7.614;2023-05-29T06:03:11;15.70;99.90
50570;DHT22;36525;49.398;7.614;2023-05-29T06:05:39;15.70;99.90
50570;DHT22;36525;49.398;7.614;2023-05-29T06:08:07;15.80;99.90
50570;DHT22;36525;49.398;7.614;2023-05-29T06:10:35;15.80;99.90
50570;DHT22;36525;49.398;7.614;2023-05-29T06:13:02;15.90;99.90
50570;DHT22;36525;49.398;7.614;2023-05-29T06:15:29;16.00;99.90
50570;DHT22;36525;49.398;7.614;2023-05-29T06:17:57;16.00;99.90
50570;DHT22;36525;49.398;7.614;2023-05-29T06:20:25;15.90;99.90
50570;DHT22;36525;49.398;7.614;2023-05-29T06:22:53;15.90;99.90
50570;DHT22;36525;49.398;7.614;2023-05-29T06:25:20;15.80;99.90
50570;DHT22;36525;49.398;7.614;2023-05-29T06:27:47;15.90;99.90
50570;DHT22;36525;49.398;7.614;2023-05-29T06:30:14;15.90;99.90
50570;DHT22;36525;49.398;7.614;2023-05-29T06:32:42;16.10;99.90
50570;DHT22;36525;49.398;7.614;2023-05-29T06:35:09;16.30;99.90
50570;DHT22;36525;49.398;7.614;2023-05-29T06:37:36;16.30;99.90
50570;DHT22;36525;49.398;7.614;2023-05-29T06:40:04;16.40;99.90
50570;DHT22;36525;49.398;7.614;2023-05-29T06:42:32;16.50;99.90
50570;DHT22;36525;49.398;7.614;2023-05-29T06:44:59;16.60;99.90
50570;DHT22;36525;49.398;7.614;2023-05-29T06:47:26;16.70;99.90
50570;DHT22;36525;49.398;7.614;2023-05-29T06:49:53;16.70;99.90
50570;DHT22;36525;49.398;7.614;2023-05-29T06:52:20;16.80;99.90
50570;DHT22;36525;49.398;7.614;2023-05-29T06:54:48;17.00;99.90
50570;DHT22;36525;49.398;7.614;2023-05-29T06:57:15;17.00;99.90
50570;DHT22;36525;49.398;7.614;2023-05-29T06:59:42;17.20;99.90
50570;DHT22;36525;49.398;7.614;2023-05-29T07:02:09;17.30;99.90
50570;DHT22;36525;49.398;7.614;2023-05-29T07:04:36;17.30;99.90
50570;DHT22;36525;49.398;7.614;2023-05-29T07:07:04;17.40;99.90
50570;DHT22;36525;49.398;7.614;2023-05-29T07:09:31;17.60;99.90
50570;DHT22;36525;49.398;7.614;2023-05-29T07:11:58;17.60;99.90
50570;DHT22;36525;49.398;7.614;2023-05-29T07:14:26;17.60;99.90
50570;DHT22;36525;49.398;7.614;2023-05-29T07:16:53;17.60;99.90
50570;DHT22;36525;49.398;7.614;2023-05-29T07:19:20;17.70;99.90
50570;DHT22;36525;49.398;7.614;2023-05-29T07:21:48;17.80;99.90
50570;DHT22;36525;49.398;7.614;2023-05-29T07:24:15;17.80;99.90
50570;DHT22;36525;49.398;7.614;2023-05-29T07:26:42;17.90;99.90
50570;DHT22;36525;49.398;7.614;2023-05-29T07:29:10;18.00;99.90
50570;DHT22;36525;49.398;7.614;2023-05-29T07:31:38;18.10;99.90
50570;DHT22;36525;49.398;7.614;2023-05-29T07:34:07;18.20;99.90
50570;DHT22;36525;49.398;7.614;2023-05-29T07:36:34;18.30;99.90
50570;DHT22;36525;49.398;7.614;2023-05-29T07:39:02;18.50;99.90
50570;DHT22;36525;49.398;7.614;2023-05-29T07:41:32;18.50;99.90
50570;DHT22;36525;49.398;7.614;2023-05-29T07:43:59;18.60;99.90
50570;DHT22;36525;49.398;7.614;2023-05-29T07:46:27;18.60;99.90
50570;DHT22;36525;49.398;7.614;2023-05-29T07:48:54;18.60;99.90
50570;DHT22;36525;49.398;7.614;2023-05-29T07:51:21;18.80;99.90
50570;DHT22;36525;49.398;7.614;2023-05-29T07:53:48;18.90;99.90
50570;DHT22;36525;49.398;7.614;2023-05-29T07:56:15;19.00;99.90
50570;DHT22;36525;49.398;7.614;2023-05-29T07:58:43;19.00;99.90
50570;DHT22;36525;49.398;7.614;2023-05-29T08:01:11;19.10;99.90
50570;DHT22;36525;49.398;7.614;2023-05-29T08:03:41;19.10;99.90
50570;DHT22;36525;49.398;7.614;2023-05-29T08:06:08;19.40;99.90
50570;DHT22;36525;49.398;7.614;2023-05-29T08:08:36;19.50;99.90
50570;DHT22;36525;49.398;7.614;2023-05-29T08:11:03;19.60;99.90
50570;DHT22;36525;49.398;7.614;2023-05-29T08:13:30;19.70;99.90
50570;DHT22;36525;49.398;7.614;2023-05-29T08:15:57;19.90;99.90
50570;DHT22;36525;49.398;7.614;2023-05-29T08:18:26;19.90;99.90
50570;DHT22;36525;49.398;7.614;2023-05-29T08:20:54;20.00;99.90
50570;DHT22;36525;49.398;7.614;2023-05-29T08:23:21;20.10;99.90
50570;DHT22;36525;49.398;7.614;2023-05-29T08:25:48;20.10;99.90
50570;DHT22;36525;49.398;7.614;2023-05-29T08:28:16;20.10;99.90
50570;DHT22;36525;49.398;7.614;2023-05-29T08:30:45;20.30;99.90
50570;DHT22;36525;49.398;7.614;2023-05-29T08:33:12;20.40;99.60
50570;DHT22;36525;49.398;7.614;2023-05-29T08:35:39;20.40;98.40
50570;DHT22;36525;49.398;7.614;2023-05-29T08:38:07;20.50;98.90
50570;DHT22;36525;49.398;7.614;2023-05-29T08:40:34;20.70;99.00
50570;DHT22;36525;49.398;7.614;2023-05-29T08:43:16;21.00;99.10
50570;DHT22;36525;49.398;7.614;2023-05-29T08:45:49;21.30;97.80
50570;DHT22;36525;49.398;7.614;2023-05-29T08:48:23;21.40;97.70
50570;DHT22;36525;49.398;7.614;2023-05-29T08:50:53;21.70;96.50
50570;DHT22;36525;49.398;7.614;2023-05-29T08:53:22;21.90;96.30
50570;DHT22;36525;49.398;7.614;2023-05-29T08:55:52;22.20;96.10
50570;DHT22;36525;49.398;7.614;2023-05-29T08:58:20;22.60;95.10
50570;DHT22;36525;49.398;7.614;2023-05-29T09:00:49;22.90;94.60
50570;DHT22;36525;49.398;7.614;2023-05-29T09:03:16;23.30;93.90
50570;DHT22;36525;49.398;7.614;2023-05-29T09:05:44;23.50;93.10
50570;DHT22;36525;49.398;7.614;2023-05-29T09:08:12;23.50;92.80
50570;DHT22;36525;49.398;7.614;2023-05-29T09:10:44;23.70;92.80
50570;DHT22;36525;49.398;7.614;2023-05-29T09:13:13;24.10;92.60
50570;DHT22;36525;49.398;7.614;2023-05-29T09:15:41;24.80;92.30
50570;DHT22;36525;49.398;7.614;2023-05-29T09:18:11;25.20;91.20
50570;DHT22;36525;49.398;7.614;2023-05-29T09:20:38;25.20;90.90
50570;DHT22;36525;49.398;7.614;2023-05-29T09:23:08;25.30;91.30
50570;DHT22;36525;49.398;7.614;2023-05-29T09:25:40;25.30;90.40
50570;DHT22;36525;49.398;7.614;2023-05-29T09:28:09;25.50;90.00
50570;DHT22;36525;49.398;7.614;2023-05-29T09:30:45;25.10;89.80
50570;DHT22;36525;49.398;7.614;2023-05-29T09:33:15;25.20;89.20
50570;DHT22;36525;49.398;7.614;2023-05-29T09:35:48;25.30;89.70
50570;DHT22;36525;49.398;7.614;2023-05-29T09:38:17;25.60;90.30
50570;DHT22;36525;49.398;7.614;2023-05-29T09:41:05;26.20;88.60
50570;DHT22;36525;49.398;7.614;2023-05-29T09:43:32;26.00;86.70
50570;DHT22;36525;49.398;7.614;2023-05-29T09:46:01;25.90;87.10
50570;DHT22;36525;49.398;7.614;2023-05-29T09:48:29;26.00;87.30
50570;DHT22;36525;49.398;7.614;2023-05-29T09:50:57;26.00;87.60
50570;DHT22;36525;49.398;7.614;2023-05-29T09:53:26;26.20;87.60
50570;DHT22;36525;49.398;7.614;2023-05-29T09:55:56;26.50;86.70
50570;DHT22;36525;49.398;7.614;2023-05-29T09:58:26;26.50;86.00
50570;DHT22;36525;49.398;7.614;2023-05-29T10:00:54;26.60;85.90
50570;DHT22;36525;49.398;7.614;2023-05-29T10:03:23;26.50;85.20
50570;DHT22;36525;49.398;7.614;2023-05-29T10:05:53;26.50;85.40
50570;DHT22;36525;49.398;7.614;2023-05-29T10:08:25;26.40;85.00
50570;DHT22;36525;49.398;7.614;2023-05-29T10:10:59;26.50;83.90
50570;DHT22;36525;49.398;7.614;2023-05-29T10:13:38;26.40;85.30
50570;DHT22;36525;49.398;7.614;2023-05-29T10:16:10;26.50;83.80
50570;DHT22;36525;49.398;7.614;2023-05-29T10:18:44;26.30;84.60
50570;DHT22;36525;49.398;7.614;2023-05-29T10:21:17;26.60;84.10
50570;DHT22;36525;49.398;7.614;2023-05-29T10:23:48;26.70;84.40
50570;DHT22;36525;49.398;7.614;2023-05-29T10:26:24;26.60;83.50
50570;DHT22;36525;49.398;7.614;2023-05-29T10:35:14;27.10;83.60
50570;DHT22;36525;49.398;7.614;2023-05-29T10:38:13;27.20;82.50
50570;DHT22;36525;49.398;7.614;2023-05-29T10:40:43;27.10;83.10
50570;DHT22;36525;49.398;7.614;2023-05-29T10:43:34;27.20;83.20
50570;DHT22;36525;49.398;7.614;2023-05-29T10:46:02;27.40;82.40
50570;DHT22;36525;49.398;7.614;2023-05-29T10:48:36;27.70;82.50
50570;DHT22;36525;49.398;7.614;2023-05-29T10:51:05;27.90;80.90
50570;DHT22;36525;49.398;7.614;2023-05-29T10:53:34;28.00;80.30
50570;DHT22;36525;49.398;7.614;2023-05-29T10:56:15;27.90;80.50
50570;DHT22;36525;49.398;7.614;2023-05-29T10:58:57;27.50;79.80
50570;DHT22;36525;49.398;7.614;2023-05-29T11:01:29;27.40;80.20
50570;DHT22;36525;49.398;7.614;2023-05-29T11:06:47;27.40;79.40
50570;DHT22;36525;49.398;7.614;2023-05-29T11:09:36;27.50;80.10
50570;DHT22;36525;49.398;7.614;2023-05-29T11:14:48;27.90;78.70
50570;DHT22;36525;49.398;7.614;2023-05-29T11:20:16;27.50;77.60
50570;DHT22;36525;49.398;7.614;2023-05-29T11:25:27;27.20;78.50
50570;DHT22;36525;49.398;7.614;2023-05-29T11:27:54;27.80;79.20
50570;DHT22;36525;49.398;7.614;2023-05-29T11:30:22;28.00;79.00
50570;DHT22;36525;49.398;7.614;2023-05-29T11:32:50;28.00;77.60
50570;DHT22;36525;49.398;7.614;2023-05-29T11:35:21;27.70;78.50
50570;DHT22;36525;49.398;7.614;2023-05-29T11:37:49;27.50;78.40
50570;DHT22;36525;49.398;7.614;2023-05-29T11:40:17;27.90;77.90
50570;DHT22;36525;49.398;7.614;2023-05-29T11:42:46;28.00;76.80
50570;DHT22;36525;49.398;7.614;2023-05-29T11:45:20;28.00;77.60
50570;DHT22;36525;49.398;7.614;2023-05-29T11:50:28;28.40;75.50
50570;DHT22;36525;49.398;7.614;2023-05-29T11:53:02;28.30;75.90
50570;DHT22;36525;49.398;7.614;2023-05-29T11:55:30;28.20;76.70
50570;DHT22;36525;49.398;7.614;2023-05-29T11:58:00;28.00;77.20
50570;DHT22;36525;49.398;7.614;2023-05-29T12:00:33;28.00;75.80
50570;DHT22;36525;49.398;7.614;2023-05-29T12:03:02;28.40;75.70
50570;DHT22;36525;49.398;7.614;2023-05-29T12:05:32;28.20;75.60
50570;DHT22;36525;49.398;7.614;2023-05-29T12:08:16;28.70;75.40
50570;DHT22;36525;49.398;7.614;2023-05-29T12:10:49;28.70;75.10
50570;DHT22;36525;49.398;7.614;2023-05-29T12:13:21;28.50;75.30
50570;DHT22;36525;49.398;7.614;2023-05-29T12:15:56;28.40;75.80
50570;DHT22;36525;49.398;7.614;2023-05-29T12:18:29;28.50;77.20
50570;DHT22;36525;49.398;7.614;2023-05-29T12:21:01;28.60;74.80
50570;DHT22;36525;49.398;7.614;2023-05-29T12:23:30;28.30;74.60
50570;DHT22;36525;49.398;7.614;2023-05-29T12:25:58;28.50;74.60
50570;DHT22;36525;49.398;7.614;2023-05-29T12:28:26;28.80;74.20
50570;DHT22;36525;49.398;7.614;2023-05-29T12:30:58;29.10;74.10
50570;DHT22;36525;49.398;7.614;2023-05-29T12:33:31;29.30;74.60
50570;DHT22;36525;49.398;7.614;2023-05-29T12:36:05;29.20;74.10
50570;DHT22;36525;49.398;7.614;2023-05-29T12:38:46;29.10;74.40
50570;DHT22;36525;49.398;7.614;2023-05-29T12:41:27;29.30;74.20
50570;DHT22;36525;49.398;7.614;2023-05-29T12:43:56;29.60;74.00
50570;DHT22;36525;49.398;7.614;2023-05-29T12:46:27;29.50;73.10
50570;DHT22;36525;49.398;7.614;2023-05-29T12:48:55;29.30;74.20
50570;DHT22;36525;49.398;7.614;2023-05-29T12:51:26;29.60;73.50
50570;DHT22;36525;49.398;7.614;2023-05-29T12:53:54;29.00;73.90
50570;DHT22;36525;49.398;7.614;2023-05-29T12:56:22;28.70;73.90
50570;DHT22;36525;49.398;7.614;2023-05-29T12:58:51;28.70;73.30
50570;DHT22;36525;49.398;7.614;2023-05-29T13:01:18;28.70;73.00
50570;DHT22;36525;49.398;7.614;2023-05-29T13:03:48;28.90;72.30
50570;DHT22;36525;49.398;7.614;2023-05-29T13:06:16;28.80;72.90
50570;DHT22;36525;49.398;7.614;2023-05-29T13:08:44;29.20;72.90
50570;DHT22;36525;49.398;7.614;2023-05-29T13:11:11;29.50;72.60
50570;DHT22;36525;49.398;7.614;2023-05-29T13:13:38;29.10;73.20
50570;DHT22;36525;49.398;7.614;2023-05-29T13:16:06;29.20;73.20
50570;DHT22;36525;49.398;7.614;2023-05-29T13:18:34;29.80;71.70
50570;DHT22;36525;49.398;7.614;2023-05-29T13:21:02;29.90;70.60
50570;DHT22;36525;49.398;7.614;2023-05-29T13:23:29;30.10;71.20
50570;DHT22;36525;49.398;7.614;2023-05-29T13:25:56;30.30;70.10
50570;DHT22;36525;49.398;7.614;2023-05-29T13:28:23;30.10;70.40
50570;DHT22;36525;49.398;7.614;2023-05-29T13:30:51;29.60;71.20
50570;DHT22;36525;49.398;7.614;2023-05-29T13:33:18;29.40;71.30
50570;DHT22;36525;49.398;7.614;2023-05-29T13:35:45;29.40;71.70
50570;DHT22;36525;49.398;7.614;2023-05-29T13:38:12;29.80;70.00
50570;DHT22;36525;49.398;7.614;2023-05-29T13:40:40;29.70;70.50
50570;DHT22;36525;49.398;7.614;2023-05-29T13:43:07;30.00;69.60
50570;DHT22;36525;49.398;7.614;2023-05-29T13:45:34;30.20;69.00
50570;DHT22;36525;49.398;7.614;2023-05-29T13:48:02;29.60;68.90
50570;DHT22;36525;49.398;7.614;2023-05-29T13:50:30;30.10;70.00
50570;DHT22;36525;49.398;7.614;2023-05-29T13:52:56;30.50;68.00
50570;DHT22;36525;49.398;7.614;2023-05-29T13:55:24;30.30;68.60
50570;DHT22;36525;49.398;7.614;2023-05-29T13:57:51;30.30;68.90
50570;DHT22;36525;49.398;7.614;2023-05-29T14:00:19;30.10;68.70
50570;DHT22;36525;49.398;7.614;2023-05-29T14:02:46;30.20;69.40
50570;DHT22;36525;49.398;7.614;2023-05-29T14:05:14;30.00;68.40
50570;DHT22;36525;49.398;7.614;2023-05-29T14:07:41;30.50;68.40
50570;DHT22;36525;49.398;7.614;2023-05-29T14:10:09;30.50;69.10
50570;DHT22;36525;49.398;7.614;2023-05-29T14:12:38;30.50;67.50
50570;DHT22;36525;49.398;7.614;2023-05-29T14:15:06;30.60;68.60
50570;DHT22;36525;49.398;7.614;2023-05-29T14:17:34;30.60;67.30
50570;DHT22;36525;49.398;7.614;2023-05-29T14:20:01;30.20;69.00
50570;DHT22;36525;49.398;7.614;2023-05-29T14:22:31;30.10;67.90
50570;DHT22;36525;49.398;7.614;2023-05-29T14:24:58;30.60;67.10
50570;DHT22;36525;49.398;7.614;2023-05-29T14:27:27;30.60;66.40
50570;DHT22;36525;49.398;7.614;2023-05-29T14:29:54;30.40;67.40
50570;DHT22;36525;49.398;7.614;2023-05-29T14:32:22;30.50;67.50
50570;DHT22;36525;49.398;7.614;2023-05-29T14:34:49;30.60;67.00
50570;DHT22;36525;49.398;7.614;2023-05-29T14:37:17;30.40;67.10
50570;DHT22;36525;49.398;7.614;2023-05-29T14:39:44;30.40;67.70
50570;DHT22;36525;49.398;7.614;2023-05-29T14:42:11;30.20;67.60
50570;DHT22;36525;49.398;7.614;2023-05-29T14:44:38;30.70;68.00
50570;DHT22;36525;49.398;7.614;2023-05-29T14:47:06;31.20;67.30
50570;DHT22;36525;49.398;7.614;2023-05-29T14:49:33;31.00;66.40
50570;DHT22;36525;49.398;7.614;2023-05-29T14:52:01;31.10;66.70
50570;DHT22;36525;49.398;7.614;2023-05-29T14:54:30;31.20;66.70
50570;DHT22;36525;49.398;7.614;2023-05-29T14:56:57;30.50;66.00
50570;DHT22;36525;49.398;7.614;2023-05-29T14:59:25;30.30;68.00
50570;DHT22;36525;49.398;7.614;2023-05-29T15:01:55;30.40;67.90
50570;DHT22;36525;49.398;7.614;2023-05-29T15:04:25;30.90;67.00
50570;DHT22;36525;49.398;7.614;2023-05-29T15:06:52;31.00;66.40
50570;DHT22;36525;49.398;7.614;2023-05-29T15:09:32;30.50;66.60
50570;DHT22;36525;49.398;7.614;2023-05-29T15:12:00;30.60;67.10
50570;DHT22;36525;49.398;7.614;2023-05-29T15:14:28;31.00;66.90
50570;DHT22;36525;49.398;7.614;2023-05-29T15:16:55;30.70;66.30
50570;DHT22;36525;49.398;7.614;2023-05-29T15:19:26;30.20;66.40
50570;DHT22;36525;49.398;7.614;2023-05-29T15:21:53;30.10;67.50
50570;DHT22;36525;49.398;7.614;2023-05-29T15:24:20;30.30;66.70
50570;DHT22;36525;49.398;7.614;2023-05-29T15:26:47;30.70;67.10
50570;DHT22;36525;49.398;7.614;2023-05-29T15:29:14;30.60;66.60
50570;DHT22;36525;49.398;7.614;2023-05-29T15:31:42;30.70;67.60
50570;DHT22;36525;49.398;7.614;2023-05-29T15:34:09;30.90;66.50
50570;DHT22;36525;49.398;7.614;2023-05-29T15:36:36;30.60;67.60
50570;DHT22;36525;49.398;7.614;2023-05-29T15:39:03;30.20;67.30
50570;DHT22;36525;49.398;7.614;2023-05-29T15:41:30;30.40;67.40
50570;DHT22;36525;49.398;7.614;2023-05-29T15:43:58;30.60;67.60
50570;DHT22;36525;49.398;7.614;2023-05-29T15:46:26;30.50;66.10
50570;DHT22;36525;49.398;7.614;2023-05-29T15:48:59;30.40;66.80
50570;DHT22;36525;49.398;7.614;2023-05-29T15:51:27;30.80;66.20
50570;DHT22;36525;49.398;7.614;2023-05-29T15:53:54;31.10;65.80
50570;DHT22;36525;49.398;7.614;2023-05-29T15:56:23;31.10;66.40
50570;DHT22;36525;49.398;7.614;2023-05-29T15:58:54;30.80;65.80
50570;DHT22;36525;49.398;7.614;2023-05-29T16:01:21;30.50;66.00
50570;DHT22;36525;49.398;7.614;2023-05-29T16:03:49;30.20;67.10
50570;DHT22;36525;49.398;7.614;2023-05-29T16:06:16;30.30;67.30